Time;durP1;ratioP1;P1;durP2;ratioP2;P2;SDS_P1;SDS_P2;PMS_P1;PMS_P2;Temp;Humidity;BMP_temperature;BMP_pressure;BME280_temperature;BME280_humidity;BME280_pressure;Samples;Min_cycle;Max_cycle;Signal;HPM_P1;HPM_P2
2022/03/19 00:00:33;;;;;;;20.33;15.20;;;;;;;;;;5134175;27;20043;-46
2022/03/19 00:03:00;;;;;;;22.02;15.57;;;;;;;;;;5133212;27;20075;-46
2022/03/19 00:05:26;;;;;;;23.02;16.00;;;;;;;;;;5132583;27;20463;-46
2022/03/19 00:07:52;;;;;;;21.48;15.45;;;;;;;;;;5124719;27;20030;-46
2022/03/19 00:10:19;;;;;;;20.02;14.80;;;;;;;;;;5133801;27;20027;-46
2022/03/19 00:12:46;;;;;;;21.02;14.77;;;;;;;;;;5126764;27;20030;-46
2022/03/19 00:15:12;;;;;;;24.95;16.25;;;;;;;;;;5134151;27;20062;-47
2022/03/19 00:17:38;;;;;;;20.35;15.35;;;;;;;;;;5132762;27;20061;-46
2022/03/19 00:20:05;;;;;;;24.33;15.93;;;;;;;;;;5115398;27;20091;-46
2022/03/19 00:22:31;;;;;;;21.60;14.65;;;;;;;;;;5122074;27;20024;-48
2022/03/19 00:24:58;;;;;;;23.35;15.30;;;;;;;;;;5113713;28;20495;-46
2022/03/19 00:27:25;;;;;;;20.52;13.50;;;;;;;;;;5120467;27;20015;-49
2022/03/19 00:29:51;;;;;;;16.33;12.48;;;;;;;;;;5133664;27;20461;-46
2022/03/19 00:32:17;;;;;;;21.98;13.05;;;;;;;;;;5132588;27;20103;-46
2022/03/19 00:34:43;;;;;;;16.70;13.43;;;;;;;;;;5133565;27;20358;-47
2022/03/19 00:37:09;;;;;;;17.35;13.07;;;;;;;;;;5132436;27;20166;-49
2022/03/19 00:39:35;;;;;;;19.15;13.27;;;;;;;;;;5098255;27;20023;-46
2022/03/19 00:42:01;;;;;;;18.50;12.25;;;;;;;;;;5110020;28;20024;-46
2022/03/19 00:44:27;;;;;;;16.08;11.65;;;;;;;;;;5113053;28;20103;-46
2022/03/19 00:46:53;;;;;;;18.65;12.88;;;;;;;;;;5115255;27;20113;-48
2022/03/19 00:49:19;;;;;;;16.63;13.02;;;;;;;;;;5133504;27;20024;-47
2022/03/19 00:51:45;;;;;;;18.65;13.27;;;;;;;;;;5116526;27;20087;-47
2022/03/19 00:54:12;;;;;;;18.77;13.70;;;;;;;;;;5130817;27;20094;-47
2022/03/19 00:56:39;;;;;;;19.73;14.07;;;;;;;;;;5093814;28;20031;-47
2022/03/19 00:59:05;;;;;;;18.90;13.93;;;;;;;;;;5133503;27;20099;-46
2022/03/19 01:01:31;;;;;;;21.27;14.68;;;;;;;;;;5133499;28;20023;-47
2022/03/19 01:03:57;;;;;;;21.65;14.80;;;;;;;;;;5127678;28;20894;-46
2022/03/19 01:06:23;;;;;;;19.00;13.43;;;;;;;;;;5115042;28;20068;-46
2022/03/19 01:08:49;;;;;;;22.33;13.38;;;;;;;;;;5127442;28;20027;-46
2022/03/19 01:11:16;;;;;;;21.90;15.57;;;;;;;;;;5114754;28;20361;-46
2022/03/19 01:13:42;;;;;;;19.05;15.02;;;;;;;;;;5112824;28;20419;-45
2022/03/19 01:16:08;;;;;;;19.90;14.80;;;;;;;;;;5112888;28;20165;-46
2022/03/19 01:18:34;;;;;;;16.25;13.75;;;;;;;;;;5123934;28;20522;-51
2022/03/19 01:21:00;;;;;;;20.90;15.68;;;;;;;;;;5113529;28;20066;-50
2022/03/19 01:23:26;;;;;;;20.85;13.93;;;;;;;;;;5102361;28;20099;-46
2022/03/19 01:25:52;;;;;;;18.42;13.95;;;;;;;;;;5112819;28;20031;-52
2022/03/19 01:28:18;;;;;;;18.95;15.18;;;;;;;;;;5121389;28;20022;-48
2022/03/19 01:30:44;;;;;;;17.63;13.85;;;;;;;;;;5120057;28;20495;-46
2022/03/19 01:33:10;;;;;;;22.30;14.63;;;;;;;;;;5130765;28;20440;-46
2022/03/19 01:35:36;;;;;;;18.35;13.13;;;;;;;;;;5124534;28;20043;-47
2022/03/19 01:38:04;;;;;;;24.60;13.77;;;;;;;;;;5130779;28;20060;-47
2022/03/19 01:40:30;;;;;;;17.02;13.70;;;;;;;;;;5133240;28;20047;-46
2022/03/19 01:43:03;;;;;;;18.67;11.93;;;;;;;;;;5131485;28;20022;-47
2022/03/19 01:45:29;;;;;;;20.08;13.48;;;;;;;;;;5133082;28;20027;-46
2022/03/19 01:47:56;;;;;;;16.63;13.25;;;;;;;;;;5130981;28;20027;-48
2022/03/19 01:50:24;;;;;;;17.63;13.30;;;;;;;;;;5114453;28;20031;-46
2022/03/19 01:52:50;;;;;;;16.55;12.65;;;;;;;;;;5127279;28;20122;-46
2022/03/19 01:55:20;;;;;;;19.00;11.90;;;;;;;;;;5129428;28;20066;-46
2022/03/19 01:57:47;;;;;;;18.38;13.32;;;;;;;;;;5131349;28;20030;-46
2022/03/19 02:00:16;;;;;;;17.13;12.80;;;;;;;;;;5132850;28;20035;-46
2022/03/19 02:02:43;;;;;;;18.50;13.45;;;;;;;;;;5124727;28;20026;-46
2022/03/19 02:05:16;;;;;;;16.38;13.15;;;;;;;;;;5112305;28;20039;-46
2022/03/19 02:07:42;;;;;;;17.08;12.57;;;;;;;;;;5121175;27;20026;-46
2022/03/19 02:10:09;;;;;;;18.02;13.52;;;;;;;;;;5135443;27;20027;-46
2022/03/19 02:12:36;;;;;;;17.25;13.07;;;;;;;;;;5135619;27;20140;-46
2022/03/19 02:15:02;;;;;;;18.10;13.63;;;;;;;;;;5134825;27;20058;-46
2022/03/19 02:17:28;;;;;;;17.88;12.95;;;;;;;;;;5115553;27;20045;-46
2022/03/19 02:19:55;;;;;;;19.42;12.80;;;;;;;;;;5135034;27;20028;-48
2022/03/19 02:22:22;;;;;;;17.85;13.90;;;;;;;;;;5136126;27;20392;-47
2022/03/19 02:27:33;;;;;;;15.38;12.52;;;;;;;;;;5136276;27;20436;-48
2022/03/19 02:30:00;;;;;;;19.13;12.75;;;;;;;;;;5134021;27;20395;-48
2022/03/19 02:32:26;;;;;;;17.50;13.20;;;;;;;;;;5135501;27;20019;-47
2022/03/19 02:34:55;;;;;;;17.52;12.48;;;;;;;;;;5133379;27;20055;-47
2022/03/19 02:37:21;;;;;;;18.42;12.95;;;;;;;;;;5134330;28;20026;-46
2022/03/19 02:39:47;;;;;;;17.33;12.07;;;;;;;;;;5133274;28;20372;-50
2022/03/19 02:42:16;;;;;;;19.13;12.50;;;;;;;;;;5116235;28;20468;-46
2022/03/19 02:44:42;;;;;;;15.77;12.02;;;;;;;;;;5131496;28;20050;-46
2022/03/19 02:47:08;;;;;;;15.40;12.88;;;;;;;;;;5134338;28;20035;-46
2022/03/19 02:49:35;;;;;;;19.35;13.32;;;;;;;;;;5132909;28;20023;-46
2022/03/19 02:52:01;;;;;;;17.00;12.75;;;;;;;;;;5134522;28;20390;-48
2022/03/19 02:54:29;;;;;;;17.63;11.80;;;;;;;;;;5133342;28;20028;-47
2022/03/19 02:56:55;;;;;;;18.02;13.32;;;;;;;;;;5134413;28;20035;-48
2022/03/19 02:59:31;;;;;;;16.80;13.07;;;;;;;;;;5123872;28;20063;-47
2022/03/19 03:02:01;;;;;;;15.95;13.07;;;;;;;;;;5116665;28;20098;-47
2022/03/19 03:04:28;;;;;;;16.10;13.32;;;;;;;;;;5132896;28;20429;-46
2022/03/19 03:06:55;;;;;;;17.27;13.18;;;;;;;;;;5134378;28;20012;-48
2022/03/19 03:09:22;;;;;;;16.70;12.95;;;;;;;;;;5132923;28;20110;-48
2022/03/19 03:11:48;;;;;;;18.87;13.13;;;;;;;;;;5131430;28;20024;-47
2022/03/19 03:14:15;;;;;;;16.42;12.35;;;;;;;;;;5133291;28;20376;-47
2022/03/19 03:16:42;;;;;;;16.55;12.77;;;;;;;;;;5115741;28;20023;-47
2022/03/19 03:19:08;;;;;;;17.45;12.18;;;;;;;;;;5131435;27;20506;-47
2022/03/19 03:21:35;;;;;;;17.15;12.98;;;;;;;;;;5118345;28;20031;-47
2022/03/19 03:24:02;;;;;;;16.48;12.65;;;;;;;;;;5118129;28;20379;-47
2022/03/19 03:26:28;;;;;;;18.77;13.07;;;;;;;;;;5133897;28;20030;-47
2022/03/19 03:28:54;;;;;;;16.60;12.55;;;;;;;;;;5132616;28;20023;-47
2022/03/19 03:31:20;;;;;;;15.43;12.50;;;;;;;;;;5133938;28;20353;-46
2022/03/19 03:33:46;;;;;;;18.13;13.60;;;;;;;;;;5078827;27;1517098;-46
2022/03/19 03:36:13;;;;;;;17.30;13.97;;;;;;;;;;5116532;27;20035;-46
2022/03/19 03:38:39;;;;;;;17.75;13.32;;;;;;;;;;5114885;27;20050;-46
2022/03/19 03:41:05;;;;;;;16.48;12.27;;;;;;;;;;5128986;27;20035;-46
2022/03/19 03:43:32;;;;;;;17.93;13.53;;;;;;;;;;5113819;27;20027;-47
2022/03/19 03:45:58;;;;;;;18.40;13.17;;;;;;;;;;5134445;27;20491;-46
2022/03/19 03:48:24;;;;;;;20.83;14.15;;;;;;;;;;5134305;27;20094;-47
2022/03/19 03:50:52;;;;;;;16.90;13.47;;;;;;;;;;5133400;27;20111;-46
2022/03/19 03:53:18;;;;;;;19.45;12.93;;;;;;;;;;5115927;27;20488;-48
2022/03/19 03:55:45;;;;;;;17.05;12.63;;;;;;;;;;5132562;27;20023;-46
2022/03/19 03:58:11;;;;;;;17.67;12.95;;;;;;;;;;5134282;27;20352;-47
2022/03/19 04:00:38;;;;;;;18.63;13.10;;;;;;;;;;5117052;27;20031;-46
2022/03/19 04:03:04;;;;;;;20.65;12.88;;;;;;;;;;5127664;27;20037;-46
2022/03/19 04:05:30;;;;;;;19.50;12.52;;;;;;;;;;5132927;27;20035;-47
2022/03/19 04:07:56;;;;;;;20.98;13.63;;;;;;;;;;5130463;27;20027;-51
2022/03/19 04:10:22;;;;;;;18.13;13.18;;;;;;;;;;5131224;27;20068;-51
2022/03/19 04:12:48;;;;;;;16.17;12.02;;;;;;;;;;5113927;27;20100;-47
2022/03/19 04:15:15;;;;;;;16.80;12.90;;;;;;;;;;5133020;27;20068;-47
2022/03/19 04:17:41;;;;;;;19.90;13.32;;;;;;;;;;5134247;27;20055;-46
2022/03/19 04:23:11;;;;;;;15.63;12.38;;;;;;;;;;5113424;27;20050;-48
2022/03/19 04:25:37;;;;;;;17.80;12.80;;;;;;;;;;5132338;27;20380;-46
2022/03/19 04:28:03;;;;;;;19.47;13.23;;;;;;;;;;5133446;27;20040;-46
2022/03/19 04:30:29;;;;;;;17.33;13.43;;;;;;;;;;5132431;27;20019;-46
2022/03/19 04:32:56;;;;;;;26.23;13.53;;;;;;;;;;5133844;27;20091;-47
2022/03/19 04:38:10;;;;;;;15.33;12.23;;;;;;;;;;5121526;27;20111;-48
2022/03/19 04:40:36;;;;;;;18.05;12.60;;;;;;;;;;5144914;27;20541;-47
2022/03/19 04:43:03;;;;;;;23.37;13.63;;;;;;;;;;5133624;27;20020;-46
2022/03/19 04:45:29;;;;;;;17.63;13.50;;;;;;;;;;5132512;27;20046;-49
2022/03/19 04:47:55;;;;;;;18.67;13.43;;;;;;;;;;5133632;27;20069;-46
2022/03/19 04:50:22;;;;;;;16.43;12.43;;;;;;;;;;5131293;27;20027;-50
2022/03/19 04:52:48;;;;;;;18.80;11.97;;;;;;;;;;5133343;27;20042;-46
2022/03/19 04:55:14;;;;;;;17.33;11.98;;;;;;;;;;5132151;27;20027;-48
2022/03/19 04:57:41;;;;;;;17.63;12.40;;;;;;;;;;5132856;27;20027;-47
2022/03/19 05:00:08;;;;;;;18.83;12.57;;;;;;;;;;5102373;28;20043;-49
2022/03/19 05:02:34;;;;;;;19.87;12.93;;;;;;;;;;5112895;28;20016;-51
2022/03/19 05:05:00;;;;;;;16.73;13.03;;;;;;;;;;5094331;28;20500;-52
2022/03/19 05:07:27;;;;;;;17.17;13.25;;;;;;;;;;5112706;28;20016;-51
2022/03/19 05:12:39;;;;;;;17.00;13.07;;;;;;;;;;5133490;28;20038;-47
2022/03/19 05:15:06;;;;;;;20.80;13.33;;;;;;;;;;5132088;28;20108;-48
2022/03/19 05:17:32;;;;;;;17.43;12.80;;;;;;;;;;5133193;28;20065;-50
2022/03/19 05:19:58;;;;;;;18.53;12.60;;;;;;;;;;5131645;28;20487;-53
2022/03/19 05:22:25;;;;;;;16.07;12.90;;;;;;;;;;5133040;28;20098;-49
2022/03/19 05:24:51;;;;;;;18.23;12.53;;;;;;;;;;5096534;28;20036;-47
2022/03/19 05:27:17;;;;;;;19.73;12.90;;;;;;;;;;5112420;28;20488;-47
2022/03/19 05:29:43;;;;;;;19.37;12.47;;;;;;;;;;5094181;28;20038;-47
2022/03/19 05:32:10;;;;;;;20.30;12.70;;;;;;;;;;5099014;28;20098;-48
2022/03/19 05:34:36;;;;;;;15.67;12.20;;;;;;;;;;5131719;28;20074;-51
2022/03/19 05:37:03;;;;;;;16.83;12.33;;;;;;;;;;5133041;28;20020;-47
2022/03/19 05:39:29;;;;;;;20.87;12.73;;;;;;;;;;5113194;28;20035;-47
2022/03/19 05:41:56;;;;;;;17.73;12.53;;;;;;;;;;5114618;28;20015;-46
2022/03/19 05:44:22;;;;;;;19.00;12.63;;;;;;;;;;5135632;27;20027;-48
2022/03/19 05:46:48;;;;;;;17.43;12.70;;;;;;;;;;5133723;27;20071;-47
2022/03/19 05:49:14;;;;;;;18.17;13.23;;;;;;;;;;5127106;27;20027;-46
2022/03/19 05:51:40;;;;;;;19.40;11.90;;;;;;;;;;5136780;27;20098;-48
2022/03/19 05:54:07;;;;;;;16.60;12.70;;;;;;;;;;5135533;27;20395;-46
2022/03/19 05:56:33;;;;;;;19.53;12.33;;;;;;;;;;5137034;27;20098;-46
2022/03/19 05:58:59;;;;;;;19.60;13.13;;;;;;;;;;5135358;27;20027;-46
2022/03/19 06:01:28;;;;;;;17.73;12.07;;;;;;;;;;5136834;27;20383;-46
2022/03/19 06:03:55;;;;;;;15.73;11.10;;;;;;;;;;5135182;27;20110;-46
2022/03/19 06:06:21;;;;;;;17.00;12.97;;;;;;;;;;5118021;27;20031;-47
2022/03/19 06:08:47;;;;;;;15.67;12.20;;;;;;;;;;5126698;27;20023;-47
2022/03/19 06:11:13;;;;;;;18.50;12.80;;;;;;;;;;5115733;28;20022;-46
2022/03/19 06:13:43;;;;;;;17.63;12.33;;;;;;;;;;5120167;27;20044;-47
2022/03/19 06:16:09;;;;;;;14.10;11.57;;;;;;;;;;5136362;27;20102;-46
2022/03/19 06:18:35;;;;;;;18.63;12.60;;;;;;;;;;5134906;27;20027;-47
2022/03/19 06:21:01;;;;;;;16.00;11.63;;;;;;;;;;5136109;27;20093;-46
2022/03/19 06:23:27;;;;;;;18.80;12.63;;;;;;;;;;5116424;27;20594;-46
2022/03/19 06:25:53;;;;;;;17.77;12.07;;;;;;;;;;5136146;27;20050;-48
2022/03/19 06:28:19;;;;;;;18.35;13.18;;;;;;;;;;5134843;27;20020;-46
2022/03/19 06:30:45;;;;;;;19.83;12.97;;;;;;;;;;5136137;27;20527;-46
2022/03/19 06:33:12;;;;;;;20.00;12.90;;;;;;;;;;5130893;27;20453;-46
2022/03/19 06:38:24;;;;;;;18.70;12.60;;;;;;;;;;5129164;27;20054;-47
2022/03/19 06:40:50;;;;;;;21.90;13.20;;;;;;;;;;5116687;27;20040;-49
2022/03/19 06:43:16;;;;;;;16.63;12.23;;;;;;;;;;5115403;27;20034;-48
2022/03/19 06:45:43;;;;;;;18.60;12.67;;;;;;;;;;5118500;27;20452;-46
2022/03/19 06:48:09;;;;;;;20.57;12.53;;;;;;;;;;5130073;27;20055;-47
2022/03/19 06:50:35;;;;;;;17.80;12.40;;;;;;;;;;5134242;27;20031;-46
2022/03/19 06:53:04;;;;;;;20.17;12.63;;;;;;;;;;5134752;27;20023;-46
2022/03/19 06:55:30;;;;;;;19.27;11.80;;;;;;;;;;5134445;27;20051;-46
2022/03/19 06:57:59;;;;;;;19.73;12.37;;;;;;;;;;5133351;27;20080;-48
2022/03/19 07:00:25;;;;;;;23.83;13.93;;;;;;;;;;5121867;27;20077;-47
2022/03/19 07:02:52;;;;;;;17.35;12.13;;;;;;;;;;5115014;28;20020;-47
2022/03/19 07:05:23;;;;;;;20.10;12.37;;;;;;;;;;5129649;27;20034;-51
2022/03/19 07:07:49;;;;;;;16.03;12.37;;;;;;;;;;5134283;27;20031;-50
2022/03/19 07:10:15;;;;;;;20.70;13.83;;;;;;;;;;5134406;27;20027;-48
2022/03/19 07:12:44;;;;;;;21.23;13.40;;;;;;;;;;5135183;27;20024;-47
2022/03/19 07:15:14;;;;;;;17.93;13.03;;;;;;;;;;5133949;27;20027;-47
2022/03/19 07:17:40;;;;;;;16.85;11.77;;;;;;;;;;5135110;27;20016;-46
2022/03/19 07:20:07;;;;;;;17.50;13.13;;;;;;;;;;5133541;27;20462;-47
2022/03/19 07:22:52;;;;;;;17.77;12.52;;;;;;;;;;5134076;27;20027;-46
2022/03/19 07:25:19;;;;;;;17.50;12.38;;;;;;;;;;5133817;27;20027;-46
2022/03/19 07:27:46;;;;;;;18.27;12.73;;;;;;;;;;5132415;27;20020;-46
2022/03/19 07:30:12;;;;;;;17.77;13.48;;;;;;;;;;5133103;27;20023;-49
2022/03/19 07:32:38;;;;;;;19.23;12.60;;;;;;;;;;5132590;27;20137;-47
2022/03/19 07:35:05;;;;;;;18.23;12.63;;;;;;;;;;5132633;27;20047;-47
2022/03/19 07:37:31;;;;;;;18.90;13.20;;;;;;;;;;5119953;27;20031;-47
2022/03/19 07:39:57;;;;;;;18.73;12.15;;;;;;;;;;5126874;27;20050;-47
2022/03/19 07:42:23;;;;;;;20.33;12.90;;;;;;;;;;5125208;27;20019;-52
2022/03/19 07:44:49;;;;;;;17.07;13.10;;;;;;;;;;5123981;27;20030;-52
2022/03/19 07:47:16;;;;;;;16.45;12.30;;;;;;;;;;5132118;27;20015;-47
2022/03/19 07:49:42;;;;;;;19.07;12.87;;;;;;;;;;5133571;27;20023;-48
2022/03/19 07:52:09;;;;;;;23.27;13.95;;;;;;;;;;5133782;27;20015;-48
2022/03/19 07:54:36;;;;;;;20.67;12.57;;;;;;;;;;5133145;27;20530;-49
2022/03/19 07:57:02;;;;;;;17.00;12.27;;;;;;;;;;5134251;27;20027;-47
2022/03/19 07:59:29;;;;;;;17.47;12.43;;;;;;;;;;5128755;27;20042;-47
2022/03/19 08:01:55;;;;;;;20.27;13.52;;;;;;;;;;5132408;27;20026;-46
2022/03/19 08:04:22;;;;;;;20.60;13.60;;;;;;;;;;5131929;27;20034;-46
2022/03/19 08:06:49;;;;;;;18.30;13.23;;;;;;;;;;5133666;27;20035;-47
2022/03/19 08:09:15;;;;;;;17.97;12.33;;;;;;;;;;5131972;27;20019;-47
2022/03/19 08:11:41;;;;;;;17.57;12.73;;;;;;;;;;5134243;27;20035;-46
2022/03/19 08:14:08;;;;;;;19.70;13.27;;;;;;;;;;5114321;27;20109;-46
2022/03/19 08:16:34;;;;;;;19.10;13.43;;;;;;;;;;5134025;27;20391;-47
2022/03/19 08:19:00;;;;;;;17.02;13.05;;;;;;;;;;5132858;27;20409;-48
2022/03/19 08:21:27;;;;;;;17.00;12.50;;;;;;;;;;5113295;28;20575;-46
2022/03/19 08:23:53;;;;;;;18.33;12.23;;;;;;;;;;5113081;28;20023;-46
2022/03/19 08:26:19;;;;;;;17.90;12.68;;;;;;;;;;5113918;27;20436;-48
2022/03/19 08:28:45;;;;;;;18.23;13.85;;;;;;;;;;5133304;27;20027;-46
2022/03/19 08:31:11;;;;;;;17.75;12.77;;;;;;;;;;5096306;28;20055;-46
2022/03/19 08:33:37;;;;;;;17.60;12.93;;;;;;;;;;5113031;28;20062;-47
2022/03/19 08:36:03;;;;;;;18.30;12.20;;;;;;;;;;5129785;27;20023;-46
2022/03/19 08:41:13;;;;;;;19.92;13.73;;;;;;;;;;5132478;27;20107;-47
2022/03/19 08:43:39;;;;;;;16.30;12.23;;;;;;;;;;5114237;27;20122;-46
2022/03/19 08:46:06;;;;;;;15.43;12.48;;;;;;;;;;5132324;27;20483;-49
2022/03/19 08:48:32;;;;;;;17.83;13.65;;;;;;;;;;5133672;27;20034;-46
2022/03/19 08:51:39;;;;;;;18.25;13.32;;;;;;;;;;5132349;27;20031;-49
2022/03/19 08:53:45;;;;;;;21.58;11.98;;;;;;;;;;5133169;27;20083;-46
2022/03/19 08:56:11;;;;;;;18.45;12.82;;;;;;;;;;5132242;27;20034;-47
2022/03/19 08:58:37;;;;;;;15.60;12.70;;;;;;;;;;5128114;27;20353;-47
2022/03/19 09:01:03;;;;;;;18.25;12.95;;;;;;;;;;5094329;28;20039;-50
2022/03/19 09:03:29;;;;;;;17.45;12.88;;;;;;;;;;5132537;28;20027;-47
2022/03/19 09:05:55;;;;;;;18.80;14.00;;;;;;;;;;5131883;28;20096;-47
2022/03/19 09:08:22;;;;;;;17.75;12.85;;;;;;;;;;5133292;28;20068;-48
2022/03/19 09:10:48;;;;;;;16.02;12.77;;;;;;;;;;5132188;28;20031;-48
2022/03/19 09:13:15;;;;;;;16.75;11.75;;;;;;;;;;5133019;28;20076;-48
2022/03/19 09:15:41;;;;;;;16.35;13.13;;;;;;;;;;5131933;28;20024;-49
2022/03/19 09:18:07;;;;;;;18.45;13.85;;;;;;;;;;5135208;27;20035;-48
2022/03/19 09:23:40;;;;;;;19.33;12.88;;;;;;;;;;5119656;27;20037;-47
2022/03/19 09:26:06;;;;;;;17.67;12.75;;;;;;;;;;5130339;27;20440;-46
2022/03/19 09:28:32;;;;;;;17.45;13.77;;;;;;;;;;5134008;27;20145;-46
2022/03/19 09:30:58;;;;;;;16.30;12.48;;;;;;;;;;5137551;27;20030;-46
2022/03/19 09:33:24;;;;;;;17.05;12.38;;;;;;;;;;5135995;27;20031;-46
2022/03/19 09:35:50;;;;;;;20.67;12.77;;;;;;;;;;5137172;27;20031;-48
2022/03/19 09:38:17;;;;;;;14.05;12.25;;;;;;;;;;5135509;27;20092;-46
2022/03/19 09:40:43;;;;;;;18.70;12.10;;;;;;;;;;5137050;27;20035;-46
2022/03/19 09:43:10;;;;;;;14.98;11.48;;;;;;;;;;5135497;27;20035;-48
2022/03/19 09:45:38;;;;;;;16.83;11.70;;;;;;;;;;5118521;27;20038;-50
2022/03/19 09:48:04;;;;;;;15.95;12.05;;;;;;;;;;5135625;27;20019;-47
2022/03/19 09:50:30;;;;;;;16.77;12.07;;;;;;;;;;5136900;27;20035;-51
2022/03/19 09:52:58;;;;;;;20.98;13.55;;;;;;;;;;5135158;27;20039;-54
2022/03/19 09:55:27;;;;;;;18.90;13.68;;;;;;;;;;5135319;27;20208;-51
2022/03/19 09:57:54;;;;;;;16.92;12.90;;;;;;;;;;5109737;28;20106;-47
2022/03/19 10:00:24;;;;;;;18.45;13.40;;;;;;;;;;5116040;28;20541;-48
2022/03/19 10:03:00;;;;;;;16.77;12.88;;;;;;;;;;5121606;27;20488;-50
2022/03/19 10:10:59;;;;;;;16.52;13.68;;;;;;;;;;5115787;28;20449;-52
2022/03/19 10:13:26;;;;;;;18.85;13.25;;;;;;;;;;5125669;27;20077;-49
2022/03/19 10:15:52;;;;;;;16.90;12.93;;;;;;;;;;5136075;27;20019;-51
2022/03/19 10:18:18;;;;;;;16.15;12.35;;;;;;;;;;5135439;27;20023;-46
2022/03/19 10:20:44;;;;;;;18.33;12.93;;;;;;;;;;5135480;27;20038;-47
2022/03/19 10:23:11;;;;;;;20.00;12.43;;;;;;;;;;5134669;27;20019;-48
2022/03/19 10:25:37;;;;;;;17.42;12.65;;;;;;;;;;5116559;27;20051;-48
2022/03/19 10:28:13;;;;;;;17.63;13.80;;;;;;;;;;5120689;27;20023;-47
2022/03/19 10:30:40;;;;;;;14.52;12.45;;;;;;;;;;5136356;27;20059;-47
2022/03/19 10:33:09;;;;;;;16.83;12.35;;;;;;;;;;5134906;27;20025;-49
2022/03/19 10:35:38;;;;;;;20.05;13.38;;;;;;;;;;5135906;27;20126;-48
2022/03/19 10:38:21;;;;;;;16.83;13.45;;;;;;;;;;5134707;27;20088;-47
2022/03/19 10:40:48;;;;;;;19.10;13.82;;;;;;;;;;5135925;27;20035;-46
2022/03/19 10:43:16;;;;;;;18.48;13.38;;;;;;;;;;5134555;27;20023;-47
2022/03/19 10:45:44;;;;;;;22.10;16.13;;;;;;;;;;5136124;27;20105;-47
2022/03/19 10:48:12;;;;;;;18.88;13.63;;;;;;;;;;5134387;27;20015;-52
2022/03/19 10:50:39;;;;;;;17.75;13.07;;;;;;;;;;5135687;27;20015;-47
2022/03/19 10:53:06;;;;;;;17.50;13.57;;;;;;;;;;5134202;27;20049;-48
2022/03/19 10:55:32;;;;;;;15.20;12.70;;;;;;;;;;5135729;27;20488;-46
2022/03/19 10:57:58;;;;;;;16.73;12.32;;;;;;;;;;5134151;27;20108;-46
2022/03/19 11:00:24;;;;;;;21.75;13.25;;;;;;;;;;5135625;27;20067;-46
2022/03/19 11:02:54;;;;;;;19.65;14.27;;;;;;;;;;5134288;27;20023;-47
2022/03/19 11:05:21;;;;;;;18.58;14.32;;;;;;;;;;5135362;27;20031;-47
2022/03/19 11:07:47;;;;;;;19.23;13.48;;;;;;;;;;5134101;27;20179;-46
2022/03/19 11:10:13;;;;;;;19.33;13.95;;;;;;;;;;5135343;27;20898;-46
2022/03/19 11:12:42;;;;;;;16.90;13.50;;;;;;;;;;5133703;27;20099;-49
2022/03/19 11:15:10;;;;;;;18.05;13.00;;;;;;;;;;5135038;27;20121;-49
2022/03/19 11:17:37;;;;;;;21.27;14.40;;;;;;;;;;5133876;27;20328;-47
2022/03/19 11:20:05;;;;;;;16.83;13.73;;;;;;;;;;5115190;27;20091;-47
2022/03/19 11:22:50;;;;;;;20.77;13.77;;;;;;;;;;5134179;27;20027;-48
2022/03/19 11:25:16;;;;;;;15.93;14.00;;;;;;;;;;5114443;28;20061;-49
2022/03/19 11:27:44;;;;;;;19.23;13.30;;;;;;;;;;5115256;27;20434;-47
2022/03/19 11:30:17;;;;;;;19.13;13.82;;;;;;;;;;5133416;27;20058;-48
2022/03/19 11:32:59;;;;;;;19.67;14.93;;;;;;;;;;5114673;27;20107;-47
2022/03/19 11:35:26;;;;;;;17.02;13.75;;;;;;;;;;5113949;27;20043;-48
2022/03/19 11:38:01;;;;;;;19.45;13.85;;;;;;;;;;5115526;27;20038;-47
2022/03/19 11:40:29;;;;;;;17.10;14.07;;;;;;;;;;5133261;27;20118;-47
2022/03/19 11:42:55;;;;;;;21.45;14.55;;;;;;;;;;5133457;27;20023;-47
2022/03/19 11:45:21;;;;;;;19.48;15.00;;;;;;;;;;5134661;27;20027;-49
2022/03/19 11:47:47;;;;;;;19.98;14.10;;;;;;;;;;5126271;27;20450;-47
2022/03/19 11:50:26;;;;;;;20.35;14.52;;;;;;;;;;5134660;27;20054;-49
2022/03/19 11:52:55;;;;;;;19.92;14.80;;;;;;;;;;5097969;27;20046;-47
2022/03/19 11:55:29;;;;;;;17.42;13.68;;;;;;;;;;5134889;27;20027;-49
2022/03/19 11:57:55;;;;;;;18.30;14.40;;;;;;;;;;5114770;27;20039;-47
2022/03/19 12:00:25;;;;;;;20.48;16.23;;;;;;;;;;5126600;27;20040;-47
2022/03/19 12:03:04;;;;;;;17.73;13.90;;;;;;;;;;5131298;27;20114;-48
2022/03/19 12:05:35;;;;;;;18.15;13.77;;;;;;;;;;5134433;27;20358;-48
2022/03/19 12:08:05;;;;;;;19.45;14.00;;;;;;;;;;5113966;27;20449;-48
2022/03/19 12:10:38;;;;;;;17.13;14.80;;;;;;;;;;5133344;27;20529;-47
2022/03/19 12:13:24;;;;;;;19.23;14.65;;;;;;;;;;5132973;27;20026;-48
2022/03/19 12:15:50;;;;;;;18.33;15.27;;;;;;;;;;5115991;27;20118;-48
2022/03/19 12:18:22;;;;;;;17.20;14.55;;;;;;;;;;5126328;27;20472;-48
2022/03/19 12:20:49;;;;;;;22.45;15.38;;;;;;;;;;5134232;27;20032;-47
2022/03/19 12:23:15;;;;;;;19.85;14.75;;;;;;;;;;5132201;27;20437;-48
2022/03/19 12:25:54;;;;;;;18.98;14.77;;;;;;;;;;5133991;27;20055;-49
2022/03/19 12:28:20;;;;;;;19.30;16.08;;;;;;;;;;5128173;27;20032;-48
2022/03/19 12:30:46;;;;;;;20.17;16.45;;;;;;;;;;5113491;28;20023;-47
2022/03/19 12:33:12;;;;;;;18.70;15.85;;;;;;;;;;5115411;27;20544;-48
2022/03/19 12:35:39;;;;;;;20.83;15.30;;;;;;;;;;5133882;27;20031;-47
2022/03/19 12:38:05;;;;;;;19.95;15.38;;;;;;;;;;5132191;27;20023;-47
2022/03/19 12:43:17;;;;;;;17.52;13.73;;;;;;;;;;5132506;27;20043;-50
2022/03/19 12:45:46;;;;;;;18.63;15.82;;;;;;;;;;5131419;27;20059;-47
2022/03/19 12:48:14;;;;;;;17.85;15.60;;;;;;;;;;5113916;28;20027;-48
2022/03/19 12:50:41;;;;;;;19.65;15.80;;;;;;;;;;5133697;27;20038;-47
2022/03/19 12:53:07;;;;;;;17.65;13.95;;;;;;;;;;5113339;27;20023;-47
2022/03/19 12:55:33;;;;;;;17.88;15.02;;;;;;;;;;5133640;27;20487;-47
2022/03/19 12:58:01;;;;;;;18.02;15.80;;;;;;;;;;5132495;27;20423;-48
2022/03/19 13:00:28;;;;;;;19.23;16.40;;;;;;;;;;5133051;27;20084;-49
2022/03/19 13:02:55;;;;;;;22.02;15.93;;;;;;;;;;5132693;27;20019;-48
2022/03/19 13:05:24;;;;;;;19.80;16.83;;;;;;;;;;5131220;28;20107;-48
2022/03/19 13:08:04;;;;;;;20.98;17.35;;;;;;;;;;5131382;28;20031;-48
2022/03/19 13:10:30;;;;;;;20.90;17.67;;;;;;;;;;5132140;28;20360;-47
2022/03/19 13:13:08;;;;;;;20.58;17.00;;;;;;;;;;5132063;28;20054;-46
2022/03/19 13:15:35;;;;;;;19.08;17.15;;;;;;;;;;5112797;28;20059;-48
2022/03/19 13:18:01;;;;;;;20.42;17.55;;;;;;;;;;5112466;28;20384;-47
2022/03/19 13:20:27;;;;;;;20.67;17.30;;;;;;;;;;5131168;28;20035;-47
2022/03/19 13:23:03;;;;;;;18.50;16.55;;;;;;;;;;5133354;28;20110;-47
2022/03/19 13:25:32;;;;;;;23.13;17.70;;;;;;;;;;5131874;28;20472;-46
2022/03/19 13:28:05;;;;;;;22.70;17.45;;;;;;;;;;5130931;28;20023;-46
2022/03/19 13:30:31;;;;;;;19.25;17.17;;;;;;;;;;5131900;28;20038;-46
2022/03/19 13:32:58;;;;;;;22.55;18.58;;;;;;;;;;5133269;28;20083;-47
2022/03/19 13:35:37;;;;;;;21.70;18.88;;;;;;;;;;5131817;28;20547;-47
2022/03/19 13:38:17;;;;;;;19.90;17.83;;;;;;;;;;5114670;28;20024;-47
2022/03/19 13:40:44;;;;;;;22.85;19.42;;;;;;;;;;5132540;28;20115;-46
2022/03/19 13:43:10;;;;;;;23.13;17.95;;;;;;;;;;5112789;28;20031;-52
2022/03/19 13:45:37;;;;;;;19.42;17.27;;;;;;;;;;5130937;28;20031;-47
2022/03/19 13:48:05;;;;;;;21.27;18.73;;;;;;;;;;5133020;28;20581;-47
2022/03/19 13:50:31;;;;;;;20.77;17.75;;;;;;;;;;5095860;28;20050;-47
2022/03/19 13:52:59;;;;;;;20.95;18.77;;;;;;;;;;5112132;28;20027;-47
2022/03/19 13:55:28;;;;;;;20.60;18.38;;;;;;;;;;5128945;28;20106;-47
2022/03/19 13:57:58;;;;;;;20.40;18.33;;;;;;;;;;5132853;28;20054;-48
2022/03/19 14:00:29;;;;;;;21.48;19.13;;;;;;;;;;5131765;28;20497;-46
2022/03/19 14:02:55;;;;;;;21.45;18.35;;;;;;;;;;5132919;27;20034;-47
2022/03/19 14:05:25;;;;;;;23.20;20.25;;;;;;;;;;5135216;27;20476;-47
2022/03/19 14:07:54;;;;;;;22.92;19.52;;;;;;;;;;5133407;27;20076;-47
2022/03/19 14:10:20;;;;;;;22.17;19.08;;;;;;;;;;5121466;27;20046;-47
2022/03/19 14:12:46;;;;;;;21.55;18.50;;;;;;;;;;5116091;28;20020;-47
2022/03/19 14:15:17;;;;;;;21.55;19.25;;;;;;;;;;5130839;27;20386;-47
2022/03/19 14:17:52;;;;;;;22.73;19.27;;;;;;;;;;5125653;27;20098;-46
2022/03/19 14:20:20;;;;;;;23.70;18.55;;;;;;;;;;5123854;27;20063;-46
2022/03/19 14:22:47;;;;;;;27.95;18.95;;;;;;;;;;5119517;27;20064;-48
2022/03/19 14:25:13;;;;;;;24.88;19.77;;;;;;;;;;5129860;27;20031;-47
2022/03/19 14:27:40;;;;;;;25.42;18.70;;;;;;;;;;5130489;27;20031;-48
2022/03/19 14:30:06;;;;;;;20.58;18.00;;;;;;;;;;5129818;27;20050;-46
2022/03/19 14:32:32;;;;;;;21.00;18.17;;;;;;;;;;5135513;27;20421;-49
2022/03/19 14:34:59;;;;;;;23.73;18.67;;;;;;;;;;5134175;27;20051;-46
2022/03/19 14:37:25;;;;;;;20.67;18.50;;;;;;;;;;5132577;27;20034;-46
2022/03/19 14:39:51;;;;;;;21.83;18.23;;;;;;;;;;5126714;27;20035;-46
2022/03/19 14:42:17;;;;;;;25.05;19.25;;;;;;;;;;5135288;27;20055;-45
2022/03/19 14:44:44;;;;;;;22.42;18.83;;;;;;;;;;5133379;27;20027;-48